Flight Track Log - Related Links

Times and Time Zones

All times are in EDT time to prevent confusion due to time zone crossing. See the EJA829P flight status page for this flight to view local times or setup timezone preferences in your user account.

Time Position Orientation Groundspeed Altitude Reporting Facility
EDT Latitude Longitude Course Direction KTS MPH feet Rate Location/Type
Thu 08:54:41 PM 41.7333 -87.7500 180° South 162 186 3,000  Level Chicago TRACON
Thu 08:55:39 PM 41.6994 -87.7256 152° Southeast 163 188 3,300 1,500 Climbing Chicago Center
Thu 08:56:41 PM 41.6517 -87.6947 154° Southeast 199 229 6,000 2,710 Climbing Chicago Center
Thu 08:57:43 PM 41.5950 -87.7208 199° South 221 254 8,900 3,000 Climbing Chicago Center
Thu 08:58:45 PM 41.5336 -87.7717 212° Southwest 237 273 12,200 2,903 Climbing Chicago Center
Thu 08:59:47 PM 41.4789 -87.8200 213° Southwest 237 273 14,900 2,565 Climbing Chicago Center
Thu 09:00:00 PM 41.1564 -87.8833 180° South  Level FlightAware Approximate
Thu 09:00:49 PM 41.4222 -87.8686 213° Southwest 238 274 17,500  Level Chicago Center
Thu 09:01:51 PM 41.3447 -87.8831 188° South 260 299 20,400 2,177 Climbing Chicago Center
Thu 09:02:53 PM 41.2675 -87.8922 185° South 270 311 22,000 1,548 Climbing Chicago Center
Thu 09:03:55 PM 41.1800 -87.8906 179° South 302 348 23,600 1,645 Climbing Chicago Center
Thu 09:04:57 PM 41.0908 -87.8878 179° South 314 361 25,400 1,790 Climbing Chicago Center
Thu 09:05:59 PM 41.0028 -87.8850 179° South 315 362 27,300 1,887 Climbing Chicago Center
Thu 09:07:01 PM 40.9142 -87.8819 179° South 315 362 29,300 1,935 Climbing Chicago Center
Thu 09:08:03 PM 40.8247 -87.8797 179° South 318 366 31,300 1,984 Climbing Chicago Center
Thu 09:09:05 PM 40.7172 -87.8753 178° South 320 368 33,400 1,694 Climbing Chicago Center
Thu 09:10:07 PM 40.6250 -87.8497 168° South 335 386 34,800 1,355 Climbing Chicago Center
Thu 09:11:09 PM 40.5331 -87.8236 168° South 336 387 36,200 1,355 Climbing Chicago Center
Thu 09:12:11 PM 40.4411 -87.7978 168° South 336 387 37,600 1,161 Climbing Chicago Center
Thu 09:13:13 PM 40.3494 -87.7725 168° South 337 388 38,600 677 Climbing Chicago Center
Thu 09:14:15 PM 40.2561 -87.7472 168° South 337 388 39,000 194 Climbing Chicago Center
Thu 09:15:17 PM 40.1503 -87.7194 169° South 366 421 39,000  Level Chicago Center
Thu 09:16:00 PM 40.0650 -87.6947 167° South 374 430 39,000  Level Indianapolis Center
Thu 09:17:01 PM 39.9572 -87.6667 169° South 384 442 39,000  Level Indianapolis Center
Thu 09:18:02 PM 39.8478 -87.6369 168° South 393 452 39,000  Level Indianapolis Center
Thu 09:19:04 PM 39.7339 -87.6067 168° South 408 470 39,000  Level Indianapolis Center
Thu 09:20:05 PM 39.6267 -87.5778 168° South 402 463 39,000  Level Indianapolis Center
Thu 09:21:07 PM 39.5181 -87.5497 169° South 401 461 39,000  Level Indianapolis Center
Thu 09:22:08 PM 39.3881 -87.5136 168° South 401 461 39,000  Level Indianapolis Center
Thu 09:23:09 PM 39.2797 -87.4853 169° South 400 460 39,000  Level Indianapolis Center
Thu 09:24:11 PM 39.1744 -87.4572 168° South 394 453 39,000  Level Indianapolis Center
Thu 09:25:12 PM 39.0592 -87.4269 168° South 392 451 39,000  Level Indianapolis Center
Thu 09:26:14 PM 38.9486 -87.3978 168° South 399 459 39,000  Level Indianapolis Center
Thu 09:27:15 PM 38.8375 -87.3694 169° South 403 464 39,000 295 Level Indianapolis Center
Thu 09:28:16 PM 38.7250 -87.3400 168° South 408 470 39,600 780 Climbing Indianapolis Center
Thu 09:29:18 PM 38.6181 -87.3111 168° South 399 459 40,600 683 Climbing Indianapolis Center
Thu 09:30:19 PM 38.5136 -87.2839 168° South 388 447 41,000 197 Climbing Indianapolis Center
Thu 09:31:20 PM 38.4089 -87.2572 169° South 387 445 41,000  Level Indianapolis Center
Thu 09:32:22 PM 38.2906 -87.2281 169° South 390 449 41,000  Level Indianapolis Center
Thu 09:33:23 PM 38.1722 -87.1958 168° South 400 460 41,000  Level Indianapolis Center
Thu 09:34:24 PM 38.0628 -87.1669 168° South 403 464 41,000  Level Indianapolis Center
Thu 09:35:26 PM 37.9528 -87.1392 169° South 403 464 41,000  Level Indianapolis Center
Thu 09:36:27 PM 37.8428 -87.1108 169° South 403 464 41,000  Level Indianapolis Center
Thu 09:37:28 PM 37.7331 -87.0822 168° South 403 464 41,000  Level Indianapolis Center
Thu 09:38:30 PM 37.6225 -87.0542 169° South 403 464 41,000  Level Indianapolis Center
Thu 09:39:31 PM 37.5131 -87.0267 169° South 403 464 41,000  Level Indianapolis Center
Thu 09:40:32 PM 37.3831 -86.9939 169° South 403 464 41,000  Level Indianapolis Center
Thu 09:41:34 PM 37.2697 -86.9661 169° South 404 465 41,000  Level Indianapolis Center
Thu 09:42:35 PM 37.1578 -86.9372 168° South 405 466 41,000  Level Indianapolis Center
Thu 09:43:26 PM 37.0639 -86.9147 169° South 408 470 41,000  Level Memphis Center
Thu 09:44:27 PM 36.9508 -86.8853 168° South 408 470 41,000  Level Memphis Center
Thu 09:45:29 PM 36.8381 -86.8572 169° South 408 470 41,000  Level Memphis Center
Thu 09:46:30 PM 36.7239 -86.8286 169° South 409 471 41,000  Level Memphis Center
Thu 09:47:31 PM 36.6097 -86.7997 169° South 410 472 41,000  Level Memphis Center
Thu 09:48:32 PM 36.4956 -86.7714 169° South 411 473 41,000  Level Memphis Center
Thu 09:49:34 PM 36.3794 -86.7428 169° South 413 475 41,000  Level Memphis Center
Thu 09:50:35 PM 36.2614 -86.7156 169° South 413 475 41,000  Level Memphis Center
Thu 09:51:36 PM 36.1456 -86.6869 169° South 415 478 41,000  Level Memphis Center
Thu 09:52:38 PM 36.0336 -86.6344 159° South 422 486 41,000  Level Memphis Center
Thu 09:53:39 PM 35.9219 -86.5794 158° South 425 489 41,000  Level Memphis Center
Thu 09:54:40 PM 35.8117 -86.5247 158° South 425 489 41,000  Level Memphis Center
Thu 09:55:41 PM 35.7011 -86.4694 158° South 425 489 41,000  Level Memphis Center
Thu 09:56:43 PM 35.5889 -86.4144 158° South 425 489 41,000  Level Memphis Center
Thu 09:57:43 PM 35.4753 -86.3619 159° South 426 490 41,000  Level Atlanta Center
Thu 09:58:43 PM 35.3553 -86.3000 157° South 433 498 41,000  Level Atlanta Center
Thu 09:59:43 PM 35.2436 -86.2486 159° South 427 491 41,000  Level Atlanta Center
Thu 10:00:43 PM 35.1506 -86.1953 155° Southeast 418 481 41,000  Level Atlanta Center
Thu 10:01:43 PM 35.0244 -86.1414 161° South 424 488 41,000  Level Atlanta Center
Thu 10:02:43 PM 34.9147 -86.0881 158° South 424 488 41,000  Level Atlanta Center
Thu 10:03:43 PM 34.8194 -86.0350 155° Southeast 419 482 41,000  Level Atlanta Center
Thu 10:04:43 PM 34.7075 -85.9844 160° South 419 482 41,000  Level Atlanta Center
Thu 10:05:43 PM 34.5978 -85.9314 158° South 426 490 41,000  Level Atlanta Center
Thu 10:06:43 PM 34.4900 -85.8811 159° South 426 490 41,000  Level Atlanta Center
Thu 10:07:43 PM 34.3783 -85.8258 158° South 426 490 41,000  Level Atlanta Center
Thu 10:08:43 PM 34.2600 -85.7731 160° South 426 490 41,000  Level Atlanta Center
Thu 10:09:43 PM 34.1522 -85.7231 159° South 426 490 41,000  Level Atlanta Center
Thu 10:10:43 PM 34.0444 -85.6708 158° South 426 490 41,000  Level Atlanta Center
Thu 10:11:43 PM 33.9322 -85.6211 160° South 426 490 41,000  Level Atlanta Center
Thu 10:12:43 PM 33.8222 -85.5692 159° South 426 490 41,000  Level Atlanta Center
Thu 10:13:43 PM 33.7144 -85.5172 158° South 426 490 41,000  Level Atlanta Center
Thu 10:14:43 PM 33.6044 -85.4681 160° South 420 483 41,000  Level Atlanta Center
Thu 10:15:43 PM 33.4944 -85.4189 160° South 427 491 41,000  Level Atlanta Center
Thu 10:16:43 PM 33.3864 -85.3675 158° South 422 486 41,000  Level Atlanta Center
Thu 10:17:43 PM 33.2700 -85.3158 160° South 429 494 41,000  Level Atlanta Center
Thu 10:18:43 PM 33.1600 -85.2647 159° South 429 494 41,000  Level Atlanta Center
Thu 10:19:43 PM 33.0622 -85.2211 160° South 424 488 41,000  Level Atlanta Center
Thu 10:20:43 PM 32.9519 -85.1725 160° South 426 490 41,000  Level Atlanta Center
Thu 10:21:43 PM 32.8397 -85.1414 167° South 419 482 41,000  Level Atlanta Center
Thu 10:22:43 PM 32.7272 -85.0956 161° South 423 487 41,000  Level Atlanta Center
Thu 10:23:43 PM 32.6150 -85.0547 163° South 423 487 41,000  Level Atlanta Center
Thu 10:24:43 PM 32.5044 -85.0192 165° South 423 487 41,000  Level Atlanta Center
Thu 10:25:43 PM 32.3922 -84.9808 164° South 418 481 41,000  Level Atlanta Center
Thu 10:27:35 PM 32.1817 -84.9103 164° South 428 493 41,000  Level Jacksonville Center
Thu 10:28:35 PM 32.0717 -84.8736 164° South 428 493 41,000  Level Jacksonville Center
Thu 10:29:35 PM 31.9575 -84.8367 165° South 428 493 41,000  Level Jacksonville Center
Thu 10:30:35 PM 31.8494 -84.8028 165° South 420 483 41,000  Level Jacksonville Center
Thu 10:31:35 PM 31.7353 -84.7636 164° South 415 478 41,000  Level Jacksonville Center
Thu 10:32:35 PM 31.6231 -84.7272 165° South 415 478 41,000  Level Jacksonville Center
Thu 10:33:35 PM 31.5108 -84.6886 164° South 415 478 41,000  Level Jacksonville Center
Thu 10:34:35 PM 31.3986 -84.6547 166° South 415 478 41,000  Level Jacksonville Center
Thu 10:35:35 PM 31.2864 -84.6089 161° South 415 478 41,000  Level Jacksonville Center
Thu 10:36:35 PM 31.1764 -84.5511 156° South 422 486 41,000  Level Jacksonville Center
Thu 10:37:35 PM 31.0644 -84.4956 157° South 430 495 41,000  Level Jacksonville Center
Thu 10:38:35 PM 30.9525 -84.4381 156° South 435 501 41,000  Level Jacksonville Center
Thu 10:39:35 PM 30.8403 -84.3806 156° South 435 501 41,000  Level Jacksonville Center
Thu 10:40:34 PM 30.7283 -84.3256 157° South 435 501 41,000  Level Jacksonville Center
Thu 10:41:34 PM 30.6161 -84.2686 156° South 440 506 41,000  Level Jacksonville Center
Thu 10:42:35 PM 30.5019 -84.2089 156° South 435 501 41,000  Level Jacksonville Center
Thu 10:43:35 PM 30.3917 -84.1544 157° South 435 501 41,000  Level Jacksonville Center
Thu 10:44:35 PM 30.2797 -84.0978 156° South 435 501 41,000  Level Jacksonville Center
Thu 10:45:35 PM 30.1633 -84.0408 157° South 440 506 41,000  Level Jacksonville Center
Thu 10:46:35 PM 30.0489 -83.9844 157° South 440 506 41,000  Level Jacksonville Center
Thu 10:47:35 PM 29.9367 -83.9281 156° South 440 506 41,000  Level Jacksonville Center
Thu 10:48:35 PM 29.8203 -83.8694 156° South 440 506 41,000  Level Jacksonville Center
Thu 10:49:35 PM 29.7058 -83.8131 157° South 445 512 41,000  Level Jacksonville Center
Thu 10:50:35 PM 29.5914 -83.7572 157° South 445 512 41,000  Level Jacksonville Center
Thu 10:51:35 PM 29.4769 -83.7014 157° South 450 518 41,000  Level Jacksonville Center
Thu 10:52:35 PM 29.3603 -83.6431 156° South 456 525 41,000  Level Jacksonville Center
Thu 10:53:35 PM 29.2439 -83.5850 156° South 456 525 41,000  Level Jacksonville Center
Thu 10:54:35 PM 29.1272 -83.5297 158° South 456 525 41,000  Level Jacksonville Center
Thu 10:55:34 PM 29.0083 -83.4694 156° South 456 525 41,000 -250 Level Jacksonville Center
Thu 10:56:35 PM 28.8919 -83.4119 157° South 456 525 40,500 -1,319 Descending Jacksonville Center
Thu 10:58:45 PM 28.6464 -83.2933 157° South 456 525 36,800 -1,778 Descending Miami Center
Thu 10:59:44 PM 28.5342 -83.2397 157° South 450 518 34,900 -1,934 Descending Miami Center
Thu 11:00:46 PM 28.4136 -83.1808 157° South 443 510 32,900 -2,000 Descending Miami Center
Thu 11:01:44 PM 28.3056 -83.1300 157° South 449 517 30,900 -2,000 Descending Miami Center
Thu 11:02:43 PM 28.1931 -83.0767 157° South 449 517 29,000 -1,869 Descending Miami Center
Thu 11:03:46 PM 28.0808 -83.0211 156° South 444 511 27,100 -1,000 Descending Miami Center
Thu 11:04:43 PM 27.9722 -82.9731 159° South 438 504 27,000 -50 Descending Miami Center
Thu 11:05:45 PM 27.8658 -82.9272 159° South 426 490 27,000  Level Miami Center
Thu 11:06:43 PM 27.7492 -82.8719 157° South 420 483 27,000 -203 Level Miami Center
Thu 11:07:43 PM 27.6531 -82.8294 159° South 420 483 26,600 -1,140 Descending Miami Center
Thu 11:08:44 PM 27.5422 -82.7814 159° South 427 491 24,700 -1,934 Descending Miami Center
Thu 11:09:44 PM 27.4236 -82.7264 158° South 422 486 22,700 -1,916 Descending Miami Center
Thu 11:10:43 PM 27.3169 -82.6789 158° South 422 486 20,900 -1,700 Descending Miami Center
Thu 11:11:44 PM 27.2294 -82.6253 151° Southeast 410 472 19,300 -1,550 Descending Miami Center
Thu 11:12:43 PM 27.1425 -82.5558 145° Southeast 397 457 17,800 -1,600 Descending Miami Center
Thu 11:13:44 PM 27.0531 -82.4908 147° Southeast 390 449 16,100 -1,750 Descending Miami Center
Thu 11:14:43 PM 26.9581 -82.4139 144° Southeast 390 449 14,300 -1,686 Descending Miami Center
Thu 11:15:45 PM 26.8789 -82.3497 144° Southeast 367 422 12,700 -1,550 Descending Miami Center
Thu 11:16:43 PM 26.8081 -82.2953 146° Southeast 351 404 11,200 -966 Descending Miami Center
Thu 11:17:43 PM 26.7392 -82.2386 144° Southeast 321 369 10,800 -1,475 Descending Miami Center
Thu 11:18:45 PM 26.6722 -82.1867 145° Southeast 305 351 8,200 -2,650 Descending Miami Center
Thu 11:19:43 PM 26.6092 -82.1372 145° Southeast 287 330 5,500 -2,231 Descending Miami Center
Thu 11:20:46 PM 26.5525 -82.0931 145° Southeast 263 303 3,700 -1,250 Descending Miami Center
Thu 11:21:43 PM 26.4997 -82.0511 145° Southeast 253 291 3,000 -359 Descending Miami Center
Thu 11:22:43 PM 26.4494 -81.9981 137° Southeast 231 266 3,000  Level Miami Center
Thu 11:24:00 PM 26.4462 -81.8785 56° Northeast  Level FlightAware Approximate
Thu 11:31:00 PM 26.5333 -81.7500 50° Northeast  Level FlightAware Approximate
Thu 11:32:00 PM 26.5362 -81.7552 50° Northeast  Level Estimated
Thu 11:33:00 PM 26.5333 -81.7500 50° Northeast  Level FlightAware Approximate
Thu 11:34:00 PM 26.5362 -81.7552 50° Northeast  Level Estimated
Thu 11:35:00 PM 26.5333 -81.7500 50° Northeast  Level FlightAware Approximate
Thu 11:36:00 PM 26.5362 -81.7552 50° Northeast  Level Estimated

Login

Don't have an account? Register now (free) for customized features, flight alerts, and more!